Time;durP1;ratioP1;P1;durP2;ratioP2;P2;SDS_P1;SDS_P2;PMS_P1;PMS_P2;Temp;Humidity;BMP_temperature;BMP_pressure;BME280_temperature;BME280_humidity;BME280_pressure;Samples;Min_cycle;Max_cycle;Signal;HPM_P1;HPM_P2
2022/03/23 00:01:50;;;;;;;12.80;9.20;;;14.10;34.70;;;;;;5022835;28;20482;-46
2022/03/23 00:04:16;;;;;;;9.93;8.93;;;14.00;34.90;;;;;;5036122;28;21181;-46
2022/03/23 00:06:43;;;;;;;10.07;9.00;;;13.80;35.50;;;;;;5034911;28;20675;-46
2022/03/23 00:09:09;;;;;;;16.10;9.27;;;13.80;35.70;;;;;;5033256;28;20197;-45
2022/03/23 00:11:34;;;;;;;11.07;9.20;;;13.80;35.50;;;;;;5034024;28;20974;-45
2022/03/23 00:14:00;;;;;;;11.17;9.40;;;13.50;35.40;;;;;;5024555;28;20205;-45
2022/03/23 00:16:26;;;;;;;12.27;9.70;;;13.10;35.80;;;;;;5041334;28;20198;-44
2022/03/23 00:18:51;;;;;;;10.53;9.43;;;12.90;36.20;;;;;;5042156;28;20572;-44
2022/03/23 00:21:17;;;;;;;15.00;8.43;;;12.50;36.80;;;;;;5028101;28;20224;-44
2022/03/23 00:23:42;;;;;;;9.77;8.73;;;12.00;37.20;;;;;;5024595;28;20228;-43
2022/03/23 00:26:08;;;;;;;15.33;9.97;;;11.90;37.60;;;;;;5025573;28;20193;-48
2022/03/23 00:28:34;;;;;;;14.13;8.53;;;11.90;37.50;;;;;;5023218;28;20197;-45
2022/03/23 00:30:59;;;;;;;10.65;9.15;;;11.90;37.40;;;;;;5024906;28;20324;-44
2022/03/23 00:33:25;;;;;;;9.93;8.60;;;11.70;37.40;;;;;;5027809;28;20271;-44
2022/03/23 00:35:51;;;;;;;10.83;9.83;;;11.60;37.80;;;;;;5029262;28;20669;-43
2022/03/23 00:38:18;;;;;;;10.77;8.47;;;11.20;38.50;;;;;;5031834;28;20223;-44
2022/03/23 00:40:44;;;;;;;10.90;9.40;;;11.30;38.80;;;;;;5030342;28;20193;-44
2022/03/23 00:43:10;;;;;;;11.77;9.33;;;10.90;39.50;;;;;;5028740;28;20460;-44
2022/03/23 00:45:37;;;;;;;13.63;9.27;;;10.80;40.10;;;;;;5034656;28;20983;-44
2022/03/23 00:48:03;;;;;;;11.30;9.67;;;10.40;40.90;;;;;;5038491;28;20484;-44
2022/03/23 00:50:29;;;;;;;9.83;8.37;;;10.40;41.20;;;;;;5033073;28;20485;-44
2022/03/23 00:52:55;;;;;;;10.50;9.17;;;10.60;41.00;;;;;;5026831;28;20492;-45
2022/03/23 00:55:20;;;;;;;13.80;10.20;;;10.50;40.90;;;;;;5029658;28;20232;-44
2022/03/23 00:57:46;;;;;;;12.53;9.20;;;10.70;40.60;;;;;;5037080;28;20197;-43
2022/03/23 01:00:16;;;;;;;13.00;9.30;;;10.90;40.30;;;;;;5025606;28;20692;-43
2022/03/23 01:02:43;;;;;;;10.00;8.73;;;11.00;40.10;;;;;;5031419;28;20208;-47
2022/03/23 01:05:10;;;;;;;10.10;9.03;;;11.20;39.70;;;;;;5028761;28;20464;-44
2022/03/23 01:07:36;;;;;;;11.90;9.47;;;11.20;39.60;;;;;;5032527;28;20436;-44
2022/03/23 01:10:06;;;;;;;10.13;8.43;;;11.20;39.30;;;;;;5034083;28;20445;-44
2022/03/23 01:12:32;;;;;;;10.77;9.17;;;11.30;39.30;;;;;;5031910;28;20554;-45
2022/03/23 01:14:58;;;;;;;11.07;9.07;;;11.20;39.20;;;;;;5032181;28;20943;-44
2022/03/23 01:17:24;;;;;;;11.13;8.93;;;11.00;39.40;;;;;;5037990;28;20193;-43
2022/03/23 01:19:50;;;;;;;11.83;8.97;;;10.80;39.70;;;;;;5042309;28;21008;-43
2022/03/23 01:22:16;;;;;;;11.33;9.33;;;10.70;39.90;;;;;;5026565;28;20445;-43
2022/03/23 01:24:43;;;;;;;13.17;10.60;;;10.70;39.80;;;;;;5023590;28;20440;-45
2022/03/23 01:27:09;;;;;;;10.80;8.83;;;10.90;39.40;;;;;;5022867;28;20448;-44
2022/03/23 01:29:35;;;;;;;12.77;9.43;;;11.10;39.20;;;;;;5022857;28;20443;-44
2022/03/23 01:32:01;;;;;;;9.60;8.43;;;11.10;39.00;;;;;;5024139;28;20503;-46
2022/03/23 01:34:26;;;;;;;13.10;9.30;;;11.10;39.10;;;;;;5026241;28;20443;-45
2022/03/23 01:36:52;;;;;;;11.20;9.50;;;11.00;39.00;;;;;;5028901;28;22036;-45
2022/03/23 01:39:18;;;;;;;13.20;9.27;;;11.00;39.20;;;;;;5024564;28;20201;-44
2022/03/23 01:41:44;;;;;;;12.90;8.83;;;11.10;39.20;;;;;;5025205;28;20198;-44
2022/03/23 01:44:23;;;;;;;10.60;9.20;;;11.10;39.20;;;;;;5028446;28;20320;-44
2022/03/23 01:47:06;;;;;;;12.30;9.57;;;11.10;39.30;;;;;;5034212;28;20810;-44
2022/03/23 01:49:33;;;;;;;11.70;9.50;;;11.10;39.40;;;;;;5024689;28;20459;-45
2022/03/23 01:51:59;;;;;;;16.73;8.93;;;11.00;39.50;;;;;;5025413;28;20896;-44
2022/03/23 01:54:25;;;;;;;10.70;8.93;;;11.00;39.50;;;;;;5024958;28;20432;-45
2022/03/23 01:56:51;;;;;;;12.60;8.80;;;10.90;39.50;;;;;;5025787;28;20513;-44
2022/03/23 01:59:18;;;;;;;11.10;8.80;;;10.90;39.40;;;;;;5035432;28;20193;-43
2022/03/23 02:01:43;;;;;;;12.67;9.03;;;10.90;39.90;;;;;;5028852;28;20495;-43
2022/03/23 02:04:10;;;;;;;11.00;8.70;;;10.90;39.30;;;;;;5026021;28;20443;-47
2022/03/23 02:06:36;;;;;;;10.80;9.07;;;10.80;39.40;;;;;;5023211;28;20193;-45
2022/03/23 02:09:02;;;;;;;13.73;9.70;;;10.60;39.50;;;;;;5024516;28;20453;-44
2022/03/23 02:11:29;;;;;;;10.60;8.50;;;10.60;39.60;;;;;;5037680;28;20835;-44
2022/03/23 02:13:54;;;;;;;16.93;9.20;;;10.60;39.60;;;;;;5026496;28;20443;-44
2022/03/23 02:16:20;;;;;;;13.03;8.97;;;10.60;39.70;;;;;;5036269;28;20439;-44
2022/03/23 02:18:46;;;;;;;11.37;9.40;;;10.60;39.70;;;;;;5030122;28;20193;-44
2022/03/23 02:21:16;;;;;;;13.10;8.87;;;10.50;39.80;;;;;;5026340;28;20687;-43
2022/03/23 02:23:42;;;;;;;9.70;8.70;;;10.50;40.40;;;;;;5026830;28;20259;-45
2022/03/23 02:26:09;;;;;;;10.40;8.97;;;10.50;40.00;;;;;;5037052;28;20444;-43
2022/03/23 02:28:36;;;;;;;11.23;8.67;;;10.40;40.30;;;;;;5029107;28;20240;-43
2022/03/23 02:31:02;;;;;;;12.90;9.70;;;10.40;40.50;;;;;;5026310;28;20983;-44
2022/03/23 02:33:28;;;;;;;21.63;9.77;;;10.30;40.60;;;;;;5023924;28;20519;-45
2022/03/23 02:35:53;;;;;;;9.53;8.53;;;10.30;40.80;;;;;;5034148;28;20504;-44
2022/03/23 02:38:19;;;;;;;10.53;8.80;;;9.90;42.10;;;;;;5028796;28;20272;-44
2022/03/23 02:40:46;;;;;;;11.23;8.30;;;9.70;42.70;;;;;;5025309;28;20284;-43
2022/03/23 02:43:12;;;;;;;11.60;8.90;;;9.50;43.20;;;;;;5031762;28;20201;-45
2022/03/23 02:45:38;;;;;;;11.77;9.50;;;9.60;43.30;;;;;;5030123;28;20459;-44
2022/03/23 02:48:06;;;;;;;12.73;9.47;;;9.50;43.20;;;;;;5030212;28;20475;-44
2022/03/23 02:50:31;;;;;;;10.90;8.10;;;9.40;43.60;;;;;;5017390;28;20980;-44
2022/03/23 03:01:53;;;;;;;12.13;9.50;;;9.30;43.80;;;;;;5026577;28;20490;-44
2022/03/23 03:04:20;;;;;;;9.80;8.67;;;9.40;43.40;;;;;;5034580;28;20452;-46
2022/03/23 03:06:47;;;;;;;10.27;9.27;;;9.40;43.10;;;;;;5035500;28;20954;-46
2022/03/23 03:09:13;;;;;;;11.60;9.13;;;9.30;43.30;;;;;;5031774;28;20465;-44
2022/03/23 03:11:39;;;;;;;11.57;9.50;;;9.00;43.70;;;;;;5034490;28;20487;-44
2022/03/23 03:14:04;;;;;;;12.80;10.17;;;8.50;44.60;;;;;;5021897;28;20951;-43
2022/03/23 03:16:30;;;;;;;11.40;9.20;;;8.20;45.30;;;;;;5027789;28;20204;-45
2022/03/23 03:18:56;;;;;;;12.33;9.90;;;8.20;45.70;;;;;;5023692;28;20250;-44
2022/03/23 03:21:21;;;;;;;10.27;7.83;;;8.10;45.60;;;;;;5028023;28;20196;-44
2022/03/23 03:23:47;;;;;;;11.90;9.13;;;8.20;45.60;;;;;;5027225;28;20575;-46
2022/03/23 03:26:15;;;;;;;11.17;8.80;;;8.40;45.20;;;;;;5022127;28;20196;-46
2022/03/23 03:28:42;;;;;;;12.73;9.77;;;8.30;45.40;;;;;;5024742;28;20450;-46
2022/03/23 03:31:10;;;;;;;12.50;9.87;;;8.10;45.50;;;;;;5031682;28;20955;-44
2022/03/23 03:33:37;;;;;;;10.20;8.47;;;8.00;46.00;;;;;;5032312;28;20467;-44
2022/03/23 03:36:04;;;;;;;11.27;8.40;;;7.70;46.70;;;;;;5041003;28;20963;-44
2022/03/23 03:38:30;;;;;;;13.57;8.93;;;7.90;46.70;;;;;;5022160;28;20589;-44
2022/03/23 03:40:57;;;;;;;13.17;9.80;;;8.10;46.50;;;;;;5025715;28;20466;-43
2022/03/23 03:43:26;;;;;;;13.03;9.60;;;8.30;45.90;;;;;;5022369;28;20821;-43
2022/03/23 03:45:52;;;;;;;12.97;8.87;;;8.50;45.50;;;;;;5027525;28;20446;-44
2022/03/23 03:48:18;;;;;;;10.67;9.07;;;8.30;45.60;;;;;;5030423;28;20927;-44
2022/03/23 03:50:44;;;;;;;14.20;9.53;;;8.30;45.60;;;;;;5036691;28;20494;-43
2022/03/23 03:53:10;;;;;;;10.90;8.70;;;8.30;45.50;;;;;;5026134;28;20287;-46
2022/03/23 03:55:36;;;;;;;11.50;8.90;;;8.50;45.30;;;;;;5034516;28;20809;-46
2022/03/23 03:58:03;;;;;;;14.33;9.30;;;8.60;45.00;;;;;;5028898;28;20444;-43
2022/03/23 04:00:29;;;;;;;11.83;9.77;;;8.70;44.80;;;;;;5026882;28;20502;-45
2022/03/23 04:02:55;;;;;;;11.77;9.40;;;8.70;44.70;;;;;;5027005;28;20487;-44
2022/03/23 04:05:20;;;;;;;12.70;9.50;;;8.70;44.60;;;;;;5033270;28;20485;-44
2022/03/23 04:07:46;;;;;;;9.73;8.20;;;8.70;44.60;;;;;;5026938;28;20641;-44
2022/03/23 04:10:11;;;;;;;11.77;9.77;;;8.80;44.50;;;;;;5029563;28;20191;-44
2022/03/23 04:12:39;;;;;;;10.37;8.70;;;8.70;44.40;;;;;;5007733;28;20228;-45
2022/03/23 04:15:05;;;;;;;11.03;8.90;;;8.70;44.50;;;;;;5027676;28;20573;-46
2022/03/23 04:17:30;;;;;;;11.23;9.30;;;8.70;44.50;;;;;;5031089;28;20442;-44
2022/03/23 04:19:56;;;;;;;15.73;9.90;;;8.70;44.40;;;;;;5004363;28;21014;-47
2022/03/23 04:22:21;;;;;;;13.50;9.03;;;8.50;44.60;;;;;;5028962;28;20201;-44
2022/03/23 04:24:47;;;;;;;11.70;9.60;;;8.30;45.00;;;;;;5023097;28;20565;-44
2022/03/23 04:27:13;;;;;;;12.20;9.27;;;8.00;45.40;;;;;;5019581;28;20678;-44
2022/03/23 04:29:40;;;;;;;11.13;9.80;;;7.70;46.50;;;;;;5026871;28;20523;-45
2022/03/23 04:32:07;;;;;;;10.17;9.10;;;7.50;47.30;;;;;;5036585;28;20228;-44
2022/03/23 04:34:33;;;;;;;12.77;8.87;;;7.50;47.60;;;;;;5026030;28;20444;-44
2022/03/23 04:36:59;;;;;;;10.83;9.00;;;7.40;47.80;;;;;;5038157;28;20474;-45
2022/03/23 04:39:25;;;;;;;11.70;10.23;;;7.00;48.30;;;;;;5026302;28;20439;-44
2022/03/23 04:41:50;;;;;;;14.57;9.87;;;6.80;48.80;;;;;;5032530;28;20196;-46
2022/03/23 04:44:17;;;;;;;19.53;9.60;;;6.70;49.30;;;;;;5031253;28;20193;-44
2022/03/23 04:46:42;;;;;;;10.10;9.10;;;6.60;49.50;;;;;;5026614;28;20276;-44
2022/03/23 04:49:08;;;;;;;14.30;10.30;;;6.80;49.60;;;;;;5023173;28;20534;-44
2022/03/23 04:51:34;;;;;;;15.00;10.50;;;7.00;49.30;;;;;;5032509;28;20263;-43
2022/03/23 04:54:02;;;;;;;11.63;8.83;;;7.10;48.80;;;;;;5034022;28;20455;-46
2022/03/23 04:56:28;;;;;;;14.50;9.20;;;7.20;48.50;;;;;;5026864;28;20483;-43
2022/03/23 04:58:54;;;;;;;11.17;9.20;;;7.30;48.40;;;;;;5030507;28;21507;-43
2022/03/23 05:01:20;;;;;;;13.33;9.33;;;7.30;48.10;;;;;;5020625;28;20832;-44
2022/03/23 05:03:46;;;;;;;15.77;9.27;;;7.10;48.00;;;;;;5028379;28;20535;-44
2022/03/23 05:06:12;;;;;;;12.07;9.90;;;7.10;48.40;;;;;;5032142;28;21059;-43
2022/03/23 05:08:37;;;;;;;14.03;9.10;;;6.90;48.60;;;;;;5033456;28;20197;-45
2022/03/23 05:11:03;;;;;;;13.20;9.03;;;6.90;48.60;;;;;;5035508;28;20200;-44
2022/03/23 05:13:29;;;;;;;11.73;10.00;;;6.90;48.50;;;;;;5027464;28;20225;-45
2022/03/23 05:15:54;;;;;;;14.33;9.20;;;6.90;48.60;;;;;;5024628;28;20197;-44
2022/03/23 05:18:20;;;;;;;15.37;10.03;;;6.70;49.00;;;;;;5037428;28;20201;-44
2022/03/23 05:20:46;;;;;;;11.63;8.73;;;6.70;49.00;;;;;;5032427;28;20659;-44
2022/03/23 05:23:11;;;;;;;11.00;9.03;;;6.80;49.20;;;;;;5020561;28;20448;-46
2022/03/23 05:25:37;;;;;;;12.73;9.27;;;6.90;49.00;;;;;;5032324;28;20649;-45
2022/03/23 05:28:06;;;;;;;11.10;9.90;;;7.10;48.60;;;;;;5028864;28;21080;-46
2022/03/23 05:30:32;;;;;;;9.53;8.63;;;7.20;48.20;;;;;;5036182;28;20232;-45
2022/03/23 05:32:58;;;;;;;13.00;8.60;;;7.40;47.90;;;;;;5037089;28;20494;-43
2022/03/23 05:35:24;;;;;;;13.03;9.53;;;7.50;47.50;;;;;;5032070;28;20197;-44
2022/03/23 05:37:50;;;;;;;10.53;9.40;;;7.50;47.50;;;;;;5026363;28;20592;-44
2022/03/23 05:40:15;;;;;;;12.43;9.20;;;7.40;47.60;;;;;;5026359;28;20473;-44
2022/03/23 05:42:41;;;;;;;14.53;8.60;;;7.30;47.60;;;;;;5034685;28;20637;-45
2022/03/23 05:45:07;;;;;;;12.53;9.63;;;7.30;48.00;;;;;;5029762;28;20824;-44
2022/03/23 05:47:34;;;;;;;13.47;9.57;;;7.30;48.10;;;;;;5028841;28;20204;-43
2022/03/23 05:50:00;;;;;;;15.00;9.30;;;7.40;48.00;;;;;;5023569;28;20523;-43
2022/03/23 05:52:25;;;;;;;14.30;9.90;;;7.50;47.70;;;;;;5033013;28;20563;-44
2022/03/23 05:54:51;;;;;;;15.20;10.00;;;7.60;47.60;;;;;;5027847;28;20280;-44
2022/03/23 05:57:16;;;;;;;11.53;9.67;;;7.70;47.30;;;;;;5028054;28;20197;-44
2022/03/23 05:59:42;;;;;;;11.90;9.83;;;7.50;47.50;;;;;;5028178;28;20200;-45
2022/03/23 06:02:07;;;;;;;14.83;10.17;;;7.40;47.90;;;;;;5037708;28;21634;-44
2022/03/23 06:04:33;;;;;;;16.13;9.13;;;7.60;47.70;;;;;;5030707;28;20241;-46
2022/03/23 06:06:59;;;;;;;13.60;10.17;;;7.70;47.40;;;;;;5029108;28;20189;-44
2022/03/23 06:09:24;;;;;;;10.03;8.73;;;7.50;47.50;;;;;;5023107;28;20801;-44
2022/03/23 06:11:51;;;;;;;11.97;8.93;;;7.70;49.20;;;;;;5022408;28;20220;-45
2022/03/23 06:14:16;;;;;;;11.50;9.10;;;8.00;50.20;;;;;;5032836;28;20536;-44
2022/03/23 06:16:42;;;;;;;12.80;8.63;;;8.50;48.90;;;;;;5024870;28;20546;-45
2022/03/23 06:19:10;;;;;;;10.10;8.00;;;8.90;47.70;;;;;;5021788;28;20198;-44
2022/03/23 06:21:36;;;;;;;9.80;8.70;;;9.20;46.80;;;;;;5025339;28;20225;-44
2022/03/23 06:24:02;;;;;;;14.60;9.50;;;9.50;45.90;;;;;;5010201;28;20517;-44
2022/03/23 06:26:28;;;;;;;12.50;9.90;;;9.70;45.00;;;;;;5031495;28;20542;-43
2022/03/23 06:28:53;;;;;;;9.17;8.27;;;9.80;43.90;;;;;;5025373;28;20555;-44
2022/03/23 06:31:20;;;;;;;13.40;9.37;;;9.90;44.30;;;;;;5029774;28;20185;-47
2022/03/23 06:33:46;;;;;;;11.47;8.63;;;10.00;43.20;;;;;;5028494;28;20208;-45
2022/03/23 06:36:12;;;;;;;9.13;8.23;;;10.20;42.80;;;;;;5028515;28;20436;-46
2022/03/23 06:38:38;;;;;;;11.03;9.80;;;10.50;42.50;;;;;;5029339;28;20193;-44
2022/03/23 06:41:04;;;;;;;11.40;9.83;;;10.50;42.00;;;;;;5038230;28;20193;-47
2022/03/23 06:43:29;;;;;;;10.40;8.60;;;10.70;41.50;;;;;;5040476;28;20490;-46
2022/03/23 06:45:55;;;;;;;12.23;10.50;;;10.80;41.50;;;;;;5029909;28;20232;-45
2022/03/23 06:48:20;;;;;;;12.53;9.57;;;10.70;41.40;;;;;;5033837;28;20197;-49
2022/03/23 06:50:46;;;;;;;11.10;9.50;;;10.80;41.40;;;;;;5036084;28;20197;-44
2022/03/23 06:53:12;;;;;;;10.70;9.57;;;11.00;41.20;;;;;;5038905;28;20236;-45
2022/03/23 06:55:38;;;;;;;11.47;9.13;;;11.30;40.90;;;;;;5030690;28;20252;-47
2022/03/23 06:58:03;;;;;;;12.00;10.00;;;11.50;40.20;;;;;;5030481;28;20193;-45
2022/03/23 07:00:29;;;;;;;14.20;10.13;;;11.20;39.40;;;;;;5028749;28;20436;-46
2022/03/23 07:02:54;;;;;;;16.47;9.60;;;10.50;41.70;;;;;;5026760;28;20189;-47
2022/03/23 07:05:20;;;;;;;12.53;9.43;;;10.80;41.50;;;;;;5028761;28;20284;-46
2022/03/23 07:10:31;;;;;;;14.23;9.90;;;11.20;40.80;;;;;;5035228;28;20214;-46
2022/03/23 07:12:58;;;;;;;13.80;11.40;;;11.80;41.20;;;;;;5031336;28;20487;-46
2022/03/23 07:15:24;;;;;;;11.13;8.80;;;12.10;39.70;;;;;;5029366;28;20506;-48
2022/03/23 07:17:50;;;;;;;11.73;10.40;;;12.40;39.10;;;;;;5027235;28;20491;-46
2022/03/23 07:20:15;;;;;;;13.73;11.27;;;12.50;38.30;;;;;;5029703;28;20435;-46
2022/03/23 07:22:41;;;;;;;13.20;10.60;;;12.70;38.50;;;;;;5029252;28;20717;-47
2022/03/23 07:25:07;;;;;;;14.23;11.40;;;13.10;37.60;;;;;;5032401;28;20204;-44
2022/03/23 07:27:32;;;;;;;11.60;9.90;;;13.50;37.20;;;;;;5028012;28;20240;-45
2022/03/23 07:29:58;;;;;;;13.13;11.30;;;13.90;36.70;;;;;;5027638;28;20440;-44
2022/03/23 07:32:24;;;;;;;15.87;10.93;;;14.20;36.10;;;;;;5027842;28;21060;-45
2022/03/23 07:34:50;;;;;;;14.10;10.67;;;14.50;35.60;;;;;;5029475;28;20444;-45
2022/03/23 07:37:15;;;;;;;13.03;10.27;;;14.80;35.00;;;;;;5029156;28;20205;-45
2022/03/23 07:39:42;;;;;;;13.77;10.67;;;15.00;34.50;;;;;;5032063;28;20197;-48
2022/03/23 07:42:08;;;;;;;17.30;12.20;;;15.20;34.10;;;;;;5020609;28;20648;-45
2022/03/23 07:44:34;;;;;;;13.90;12.23;;;15.10;33.50;;;;;;5027859;28;20427;-46
2022/03/23 07:47:01;;;;;;;13.63;11.50;;;15.20;33.80;;;;;;5040640;28;20197;-46
2022/03/23 07:49:27;;;;;;;18.00;12.70;;;15.30;33.60;;;;;;5036724;28;20435;-45
2022/03/23 07:51:52;;;;;;;16.90;11.90;;;15.50;33.40;;;;;;5041660;28;20522;-45
2022/03/23 07:54:18;;;;;;;13.57;12.07;;;15.70;33.20;;;;;;5039130;28;20191;-45
2022/03/23 07:56:44;;;;;;;13.40;12.00;;;15.80;33.00;;;;;;5041204;28;20203;-45
2022/03/23 07:59:10;;;;;;;13.97;12.10;;;16.00;32.80;;;;;;5028923;28;20248;-45
2022/03/23 08:01:36;;;;;;;14.73;11.70;;;16.10;32.60;;;;;;5037694;28;20470;-49
2022/03/23 08:04:05;;;;;;;13.90;12.00;;;16.20;32.40;;;;;;5033487;28;20310;-47
2022/03/23 08:06:30;;;;;;;13.93;12.27;;;16.30;32.20;;;;;;5030808;28;20558;-45
2022/03/23 08:08:56;;;;;;;12.77;11.37;;;16.40;32.40;;;;;;5027136;28;20594;-50
2022/03/23 08:11:22;;;;;;;13.67;11.83;;;16.50;32.10;;;;;;5029221;28;20193;-47
2022/03/23 08:13:48;;;;;;;25.83;13.80;;;16.60;31.70;;;;;;5037974;28;20446;-51
2022/03/23 08:16:13;;;;;;;15.70;13.10;;;16.60;32.00;;;;;;5050036;28;20645;-45
2022/03/23 08:18:39;;;;;;;12.67;11.37;;;16.60;31.50;;;;;;5037592;28;20193;-46
2022/03/23 08:21:05;;;;;;;18.70;12.17;;;16.70;31.30;;;;;;5053670;28;20188;-48
2022/03/23 08:23:32;;;;;;;14.43;12.93;;;16.80;31.30;;;;;;5053359;28;20279;-47
2022/03/23 08:25:58;;;;;;;15.83;12.37;;;16.70;31.30;;;;;;5053302;28;20419;-45
2022/03/23 08:28:24;;;;;;;16.43;12.83;;;16.80;31.40;;;;;;5039427;28;20434;-46
2022/03/23 08:30:49;;;;;;;14.90;12.27;;;16.80;31.60;;;;;;5053032;28;20648;-49
2022/03/23 08:33:15;;;;;;;14.13;12.00;;;16.80;31.80;;;;;;5052904;28;20228;-46
2022/03/23 08:35:40;;;;;;;18.10;15.00;;;16.70;31.50;;;;;;5034218;28;20296;-48
2022/03/23 08:38:07;;;;;;;19.40;14.57;;;16.60;31.60;;;;;;5031074;28;20292;-45
2022/03/23 08:40:34;;;;;;;14.20;12.40;;;16.70;31.90;;;;;;5030186;28;20228;-47
2022/03/23 08:43:01;;;;;;;20.77;13.60;;;16.80;31.90;;;;;;5036374;28;20443;-45
2022/03/23 08:45:27;;;;;;;21.37;14.67;;;17.00;31.50;;;;;;5030886;28;20435;-50
2022/03/23 08:47:54;;;;;;;17.43;14.43;;;17.10;31.60;;;;;;5029261;28;20493;-46
2022/03/23 08:50:20;;;;;;;17.13;13.60;;;17.20;32.10;;;;;;5029028;28;20443;-49
2022/03/23 08:52:45;;;;;;;19.00;14.33;;;17.40;30.80;;;;;;5030411;28;20472;-47
2022/03/23 08:55:19;;;;;;;16.83;14.63;;;17.40;31.00;;;;;;5044034;28;20926;-46
2022/03/23 08:57:45;;;;;;;18.53;14.10;;;17.40;30.70;;;;;;5034127;28;20197;-45
2022/03/23 09:00:14;;;;;;;17.43;14.70;;;17.50;30.80;;;;;;5032234;28;20416;-45
2022/03/23 09:02:40;;;;;;;19.73;15.03;;;17.60;30.60;;;;;;5025873;28;21027;-49
2022/03/23 09:05:10;;;;;;;23.33;17.10;;;17.70;30.80;;;;;;5032133;28;20451;-50
2022/03/23 09:07:36;;;;;;;24.33;15.90;;;17.70;31.50;;;;;;5034277;28;20484;-47
2022/03/23 09:10:02;;;;;;;21.17;15.77;;;17.80;30.80;;;;;;5038057;28;20440;-47
2022/03/23 09:12:28;;;;;;;19.37;16.43;;;18.00;30.50;;;;;;5037603;28;20484;-48
2022/03/23 09:14:53;;;;;;;24.03;15.87;;;18.20;30.50;;;;;;5031749;28;20186;-50
2022/03/23 09:17:19;;;;;;;22.13;15.60;;;18.20;30.40;;;;;;5052771;28;20271;-49
2022/03/23 09:19:45;;;;;;;20.10;14.83;;;18.40;30.20;;;;;;5036982;28;20252;-48
2022/03/23 09:22:10;;;;;;;19.37;15.10;;;18.60;30.00;;;;;;5034025;28;20197;-46
2022/03/23 09:24:36;;;;;;;23.90;16.70;;;18.80;29.60;;;;;;5035599;28;20704;-46
2022/03/23 09:27:01;;;;;;;20.93;16.40;;;18.90;29.70;;;;;;5036885;28;20185;-49
2022/03/23 09:29:27;;;;;;;22.90;16.40;;;19.10;29.70;;;;;;5043356;28;20188;-47
2022/03/23 09:31:53;;;;;;;19.03;15.83;;;19.20;29.60;;;;;;5039731;28;20291;-48
2022/03/23 09:34:18;;;;;;;17.87;15.07;;;19.30;29.90;;;;;;5030092;28;20204;-46
2022/03/23 09:39:28;;;;;;;17.17;15.37;;;19.50;29.50;;;;;;5034670;28;20207;-50
2022/03/23 09:41:57;;;;;;;20.97;15.60;;;19.60;29.50;;;;;;5031703;28;20432;-46
2022/03/23 09:44:25;;;;;;;21.47;16.83;;;19.70;29.30;;;;;;5029040;28;20272;-47
2022/03/23 09:46:51;;;;;;;18.80;16.77;;;19.90;29.40;;;;;;5031193;28;20443;-51
2022/03/23 09:49:16;;;;;;;21.30;16.13;;;20.00;29.20;;;;;;5032018;28;20809;-46
2022/03/23 09:51:43;;;;;;;18.97;15.83;;;20.20;29.70;;;;;;5028007;28;20311;-52
2022/03/23 09:54:09;;;;;;;17.87;15.60;;;20.30;29.70;;;;;;5026459;28;20255;-45
2022/03/23 09:56:35;;;;;;;21.63;16.03;;;20.30;29.00;;;;;;5031455;28;20523;-45
2022/03/23 09:59:04;;;;;;;18.50;15.73;;;20.50;28.40;;;;;;5027939;28;20201;-46
2022/03/23 10:01:30;;;;;;;18.80;15.03;;;20.70;27.70;;;;;;5033031;28;20229;-45
2022/03/23 10:04:17;;;;;;;19.00;16.10;;;20.70;27.10;;;;;;5046390;28;21185;-45
2022/03/23 10:07:10;;;;;;;16.70;14.93;;;20.80;27.60;;;;;;5027525;28;20690;-47
2022/03/23 10:10:08;;;;;;;18.53;14.00;;;21.10;26.40;;;;;;5036967;28;20999;-45
2022/03/23 10:13:21;;;;;;;16.73;14.90;;;21.20;25.40;;;;;;5029078;28;20471;-45
2022/03/23 10:16:19;;;;;;;16.10;14.43;;;21.50;25.60;;;;;;4948064;28;20479;-46
2022/03/23 10:18:51;;;;;;;16.83;15.07;;;21.70;26.00;;;;;;5022169;28;20959;-47
2022/03/23 10:21:18;;;;;;;20.20;15.13;;;21.70;26.20;;;;;;5030064;28;20452;-47
2022/03/23 10:24:12;;;;;;;16.87;15.27;;;21.90;25.50;;;;;;5017573;28;20439;-47
2022/03/23 10:26:41;;;;;;;17.50;15.70;;;22.10;26.20;;;;;;5018090;28;20523;-50
2022/03/23 10:29:27;;;;;;;19.53;16.30;;;22.20;26.00;;;;;;5021281;28;20458;-45
2022/03/23 10:32:04;;;;;;;17.70;15.53;;;22.40;25.80;;;;;;5025055;28;20487;-46
2022/03/23 10:34:40;;;;;;;17.20;15.40;;;22.40;25.50;;;;;;5028456;28;20440;-46
2022/03/23 10:37:06;;;;;;;16.77;15.07;;;22.40;25.60;;;;;;5029847;28;20440;-48
2022/03/23 10:39:32;;;;;;;18.73;16.73;;;22.50;25.30;;;;;;5029225;28;20491;-46
2022/03/23 10:42:28;;;;;;;16.77;15.20;;;22.60;25.30;;;;;;5032509;28;20190;-46
2022/03/23 10:45:08;;;;;;;17.73;15.87;;;22.80;25.80;;;;;;5021330;28;20440;-48
2022/03/23 10:47:35;;;;;;;16.97;15.17;;;23.00;25.50;;;;;;5029609;28;20520;-45
2022/03/23 10:50:15;;;;;;;16.63;14.93;;;23.20;26.30;;;;;;5029924;28;20440;-46
2022/03/23 10:52:50;;;;;;;20.73;14.47;;;23.40;25.60;;;;;;5035143;28;20497;-48
2022/03/23 10:55:16;;;;;;;15.63;14.13;;;23.70;24.80;;;;;;5032153;28;20478;-47
2022/03/23 10:57:50;;;;;;;16.10;14.50;;;23.80;24.90;;;;;;5030160;28;20456;-48
2022/03/23 11:00:19;;;;;;;15.33;13.90;;;24.00;24.70;;;;;;5028767;28;20534;-47
2022/03/23 11:02:48;;;;;;;17.30;15.27;;;24.00;23.70;;;;;;5029868;28;20428;-45
2022/03/23 11:05:47;;;;;;;14.93;13.50;;;24.10;23.50;;;;;;5026728;28;20553;-45
2022/03/23 11:08:22;;;;;;;15.40;13.90;;;24.30;23.50;;;;;;4982097;28;20498;-52
2022/03/23 11:16:27;;;;;;;16.20;14.57;;;24.80;23.10;;;;;;5033892;28;21005;-47
2022/03/23 11:19:12;;;;;;;17.17;14.67;;;24.70;23.00;;;;;;5021762;28;20447;-46
2022/03/23 11:22:01;;;;;;;14.83;13.47;;;24.80;22.90;;;;;;5026747;28;20476;-45
2022/03/23 11:24:37;;;;;;;14.20;12.77;;;24.90;23.10;;;;;;5031141;28;20499;-49
2022/03/23 11:27:06;;;;;;;15.50;14.00;;;24.90;23.30;;;;;;5014404;28;20487;-48
2022/03/23 11:29:32;;;;;;;14.60;12.63;;;25.00;23.00;;;;;;5029222;28;20475;-46
2022/03/23 11:32:07;;;;;;;14.73;13.37;;;25.20;24.30;;;;;;5027502;28;20484;-46
2022/03/23 11:34:36;;;;;;;15.13;13.77;;;25.60;23.80;;;;;;5042352;28;21908;-49
2022/03/23 11:37:03;;;;;;;12.70;11.60;;;25.80;23.10;;;;;;5035401;28;20456;-50
2022/03/23 11:39:31;;;;;;;15.00;12.90;;;26.00;23.90;;;;;;5037917;28;20570;-46
2022/03/23 11:41:58;;;;;;;14.10;12.80;;;26.20;22.80;;;;;;5029997;28;20518;-47
2022/03/23 11:44:25;;;;;;;12.60;11.40;;;26.40;22.80;;;;;;5038436;28;20494;-47
2022/03/23 11:46:55;;;;;;;15.70;14.00;;;26.50;22.40;;;;;;5044568;28;20477;-47
2022/03/23 11:49:52;;;;;;;15.90;13.63;;;26.60;21.50;;;;;;5032779;28;20829;-46
2022/03/23 11:52:34;;;;;;;14.03;12.73;;;26.60;21.70;;;;;;5032455;28;20487;-46
2022/03/23 11:55:37;;;;;;;14.60;13.23;;;26.80;21.90;;;;;;5043511;28;20807;-49
2022/03/23 11:58:17;;;;;;;20.53;13.47;;;26.80;21.60;;;;;;5026969;28;20439;-46
2022/03/23 12:00:54;;;;;;;13.50;12.20;;;26.90;21.90;;;;;;5026624;28;20877;-45
2022/03/23 12:03:53;;;;;;;14.93;13.53;;;26.90;22.60;;;;;;5034253;28;20462;-46
2022/03/23 12:06:21;;;;;;;16.00;12.67;;;27.10;22.40;;;;;;5019417;28;20457;-48
2022/03/23 12:09:00;;;;;;;13.30;12.10;;;27.20;22.40;;;;;;5037946;28;20454;-47
2022/03/23 12:11:43;;;;;;;13.67;12.43;;;27.50;22.30;;;;;;5026371;28;20494;-46
2022/03/23 12:14:21;;;;;;;15.53;13.97;;;27.70;21.30;;;;;;5028755;28;20452;-49
2022/03/23 12:16:47;;;;;;;14.47;12.97;;;27.70;20.70;;;;;;5034068;28;20517;-46
2022/03/23 12:19:17;;;;;;;14.80;12.80;;;27.60;20.70;;;;;;5030612;28;20542;-47
2022/03/23 12:22:14;;;;;;;12.00;10.90;;;27.70;20.80;;;;;;5038143;28;20236;-47
2022/03/23 12:25:26;;;;;;;13.70;11.07;;;27.80;21.60;;;;;;5024840;28;20523;-46
2022/03/23 12:28:01;;;;;;;12.83;11.73;;;28.00;20.90;;;;;;4936113;29;20450;-49
2022/03/23 12:30:27;;;;;;;12.83;11.70;;;27.90;20.50;;;;;;5022096;28;20439;-47
2022/03/23 12:32:56;;;;;;;14.03;12.53;;;27.80;19.90;;;;;;5025732;28;20490;-47
2022/03/23 12:35:33;;;;;;;13.07;11.97;;;27.80;19.50;;;;;;5025654;28;20193;-46
2022/03/23 12:37:59;;;;;;;13.30;12.10;;;27.80;19.70;;;;;;5027609;28;20442;-46
2022/03/23 12:40:40;;;;;;;13.00;11.70;;;27.40;20.30;;;;;;5029239;28;20460;-49
2022/03/23 12:43:05;;;;;;;13.57;12.23;;;27.40;20.30;;;;;;5025424;28;20881;-49
2022/03/23 12:45:39;;;;;;;13.13;11.93;;;27.50;20.00;;;;;;5029106;28;20522;-49
2022/03/23 12:59:23;;;;;;;14.43;13.03;;;27.80;19.10;;;;;;5029513;28;20619;-46
2022/03/23 13:02:19;;;;;;;13.17;12.00;;;27.90;19.40;;;;;;5030122;28;20459;-48
2022/03/23 13:04:45;;;;;;;13.00;11.70;;;27.80;19.40;;;;;;5020096;28;20448;-48
2022/03/23 13:07:29;;;;;;;13.40;12.30;;;27.80;20.20;;;;;;5028501;28;21004;-46
2022/03/23 13:10:14;;;;;;;14.87;13.67;;;27.70;19.60;;;;;;5028374;28;20189;-48
2022/03/23 13:12:41;;;;;;;12.47;11.37;;;27.70;20.60;;;;;;5027492;28;20480;-46
2022/03/23 13:15:15;;;;;;;14.63;13.23;;;27.80;20.30;;;;;;5031383;28;20789;-46